Time;durP1;ratioP1;P1;durP2;ratioP2;P2;SDS_P1;SDS_P2;PMS_P1;PMS_P2;Temp;Humidity;BMP_temperature;BMP_pressure;BME280_temperature;BME280_humidity;BME280_pressure;Samples;Min_cycle;Max_cycle;Signal;HPM_P1;HPM_P2
2022/10/22 00:00:46;;;;;;;23.93;14.40;;;;;;;10.11;100.00;95275.50;5031280;28;20222;-62
2022/10/22 00:03:11;;;;;;;26.43;14.23;;;;;;;10.10;100.00;95275.59;5030983;28;20728;-61
2022/10/22 00:05:37;;;;;;;21.77;13.90;;;;;;;10.11;100.00;95288.22;5031382;28;20300;-62
2022/10/22 00:08:02;;;;;;;22.10;15.40;;;;;;;10.12;100.00;95289.81;5030969;28;20182;-61
2022/10/22 00:10:28;;;;;;;22.30;14.83;;;;;;;10.18;100.00;95287.78;5031165;28;20297;-61
2022/10/22 00:12:53;;;;;;;22.13;14.33;;;;;;;10.33;99.06;95312.03;5030981;28;20214;-61
2022/10/22 00:15:19;;;;;;;19.93;13.97;;;;;;;10.04;100.00;95287.00;5031003;28;20230;-61
2022/10/22 00:17:44;;;;;;;21.50;14.07;;;;;;;10.00;100.00;95282.25;5013086;28;20194;-60
2022/10/22 00:20:10;;;;;;;30.37;14.80;;;;;;;10.00;100.00;95283.06;5031009;28;20536;-62
2022/10/22 00:22:35;;;;;;;20.53;14.47;;;;;;;9.94;100.00;95275.06;5030764;28;20240;-61
2022/10/22 00:25:01;;;;;;;22.10;14.63;;;;;;;9.96;100.00;95289.28;5031103;28;20236;-62
2022/10/22 00:27:26;;;;;;;22.97;14.27;;;;;;;9.92;100.00;95298.03;5030937;28;20213;-61
2022/10/22 00:29:52;;;;;;;23.17;14.83;;;;;;;9.90;100.00;95279.56;5012988;28;20210;-60
2022/10/22 00:32:17;;;;;;;20.73;14.93;;;;;;;10.04;100.00;95298.88;5030530;28;20601;-59
2022/10/22 00:34:43;;;;;;;24.47;15.00;;;;;;;10.16;99.67;95304.84;5030554;28;20631;-60
2022/10/22 00:37:08;;;;;;;24.83;15.03;;;;;;;10.09;100.00;95287.47;5030574;28;20194;-59
2022/10/22 00:39:34;;;;;;;22.90;14.80;;;;;;;9.83;100.00;95267.41;5030653;28;20253;-60
2022/10/22 00:42:00;;;;;;;21.70;14.67;;;;;;;9.81;100.00;95265.00;5030512;28;20372;-59
2022/10/22 00:45:03;;;;;;;23.17;14.80;;;;;;;9.78;100.00;95266.94;5030346;28;20222;-58
2022/10/22 00:47:46;;;;;;;23.07;14.80;;;;;;;9.83;100.00;95280.94;5030631;28;20714;-61
2022/10/22 00:50:22;;;;;;;21.77;13.37;;;;;;;9.69;100.00;95265.88;5030662;28;20214;-61
2022/10/22 00:52:49;;;;;;;23.00;14.30;;;;;;;9.59;100.00;95262.38;5030086;28;20297;-60
2022/10/22 00:55:15;;;;;;;20.47;13.23;;;;;;;9.64;100.00;95284.88;5030612;28;20225;-61
2022/10/22 00:57:41;;;;;;;22.63;14.30;;;;;;;9.57;100.00;95265.94;5029852;28;20590;-62
2022/10/22 01:00:08;;;;;;;21.67;13.97;;;;;;;9.58;100.00;95265.00;5029822;28;20229;-61
2022/10/22 01:02:33;;;;;;;20.53;14.60;;;;;;;9.63;100.00;95261.25;5030413;28;20190;-60
2022/10/22 01:04:59;;;;;;;23.10;14.37;;;;;;;9.61;100.00;95262.25;5033401;28;20214;-59
2022/10/22 01:07:25;;;;;;;21.37;15.20;;;;;;;9.77;100.00;95267.88;5032784;28;20225;-61
2022/10/22 01:10:08;;;;;;;19.30;13.87;;;;;;;9.94;100.00;95270.81;5033808;28;20301;-60
2022/10/22 01:12:40;;;;;;;16.93;12.37;;;;;;;9.86;100.00;95262.09;5033693;28;20649;-59
2022/10/22 01:15:25;;;;;;;19.20;12.67;;;;;;;9.69;100.00;95254.91;5033550;28;20218;-61
2022/10/22 01:18:06;;;;;;;23.07;12.97;;;;;;;9.39;100.00;95230.00;5033489;28;20255;-60
2022/10/22 01:20:54;;;;;;;20.17;13.17;;;;;;;9.47;100.00;95231.97;5015802;28;20218;-61
2022/10/22 01:23:22;;;;;;;19.60;13.47;;;;;;;9.22;100.00;95222.75;5033515;28;20204;-59
2022/10/22 01:26:06;;;;;;;22.27;14.53;;;;;;;9.17;100.00;95224.81;5033513;28;20305;-59
2022/10/22 01:28:55;;;;;;;19.70;13.07;;;;;;;9.47;100.00;95237.88;5094769;22;20232;-59
2022/10/22 01:31:24;;;;;;;23.43;13.70;;;;;;;9.42;100.00;95222.16;5073403;28;20217;-60
2022/10/22 01:33:53;;;;;;;21.57;13.87;;;;;;;9.51;100.00;95230.84;5073242;28;20262;-60
2022/10/22 01:36:20;;;;;;;21.80;13.73;;;;;;;9.57;100.00;95227.88;5073047;28;20591;-59
2022/10/22 01:38:47;;;;;;;19.33;11.67;;;;;;;9.56;100.00;95239.72;5073024;28;20568;-63
2022/10/22 01:41:12;;;;;;;20.87;12.87;;;;;;;9.51;100.00;95228.31;5073497;28;20346;-60
2022/10/22 01:46:05;;;;;;;16.93;10.70;;;;;;;9.36;100.00;95227.66;5036537;22;20283;-59
2022/10/22 01:48:33;;;;;;;17.20;10.33;;;;;;;9.27;98.63;95241.00;5033214;28;21017;-59
2022/10/22 01:51:14;;;;;;;13.07;10.37;;;;;;;9.11;99.81;95237.91;5032979;28;20285;-62
2022/10/22 01:53:51;;;;;;;13.40;10.03;;;;;;;9.18;100.00;95213.72;5032876;28;20213;-61
2022/10/22 01:56:35;;;;;;;12.87;9.30;;;;;;;9.12;99.98;95231.91;5033027;28;20209;-60
2022/10/22 01:59:07;;;;;;;13.13;9.87;;;;;;;9.10;100.00;95226.97;5033306;28;20295;-58
2022/10/22 02:01:51;;;;;;;15.10;10.03;;;;;;;8.99;100.00;95213.38;5015136;28;20185;-61
2022/10/22 02:04:26;;;;;;;14.30;9.37;;;;;;;8.93;100.00;95211.28;5015177;28;20210;-60
2022/10/22 02:06:57;;;;;;;14.40;9.37;;;;;;;8.94;100.00;95205.31;5031508;28;20190;-61
2022/10/22 02:09:25;;;;;;;17.13;11.27;;;;;;;8.62;100.00;95205.00;5032944;28;20244;-61
2022/10/22 02:11:52;;;;;;;18.03;11.40;;;;;;;8.85;100.00;95211.00;5032491;28;20305;-60
2022/10/22 02:14:19;;;;;;;17.37;11.83;;;;;;;8.79;100.00;95229.16;5032307;28;20213;-60
2022/10/22 02:16:47;;;;;;;16.33;10.60;;;;;;;8.83;100.00;95228.84;5031944;28;20186;-60
2022/10/22 02:19:35;;;;;;;17.40;10.77;;;;;;;8.86;100.00;95222.75;5032961;28;20256;-58
2022/10/22 02:22:00;;;;;;;19.30;10.90;;;;;;;9.04;100.00;95226.56;5032570;28;20668;-59
2022/10/22 02:24:33;;;;;;;17.77;11.77;;;;;;;9.27;100.00;95230.84;5032259;28;20360;-60
2022/10/22 02:27:26;;;;;;;14.23;10.33;;;;;;;9.06;100.00;95209.53;5032455;28;20182;-60
2022/10/22 02:30:05;;;;;;;18.50;12.43;;;;;;;9.13;100.00;95211.50;5032369;28;20218;-60
2022/10/22 02:32:43;;;;;;;16.83;11.20;;;;;;;9.10;100.00;95210.91;5032392;28;20201;-60
2022/10/22 02:35:12;;;;;;;16.67;11.37;;;;;;;8.84;100.00;95204.31;5032290;28;20313;-59
2022/10/22 02:37:39;;;;;;;17.13;11.73;;;;;;;8.81;100.00;95212.94;5032229;28;20209;-61
2022/10/22 02:40:05;;;;;;;14.43;10.13;;;;;;;8.87;100.00;95215.06;5032532;28;20268;-59
2022/10/22 02:42:32;;;;;;;18.27;10.23;;;;;;;8.91;100.00;95216.47;5032233;28;20193;-61
2022/10/22 02:44:57;;;;;;;17.07;11.73;;;;;;;8.97;100.00;95221.09;5032589;28;20202;-59
2022/10/22 02:47:22;;;;;;;17.33;11.17;;;;;;;9.09;100.00;95229.59;5032200;28;20269;-59
2022/10/22 02:49:48;;;;;;;14.10;9.77;;;;;;;9.01;100.00;95258.00;5032566;28;20198;-60
2022/10/22 02:52:13;;;;;;;14.73;10.60;;;;;;;8.97;100.00;95256.59;5031867;28;20218;-60
2022/10/22 02:54:39;;;;;;;13.20;9.17;;;;;;;8.93;100.00;95259.44;5032298;28;20214;-61
2022/10/22 02:57:04;;;;;;;13.87;10.47;;;;;;;8.91;100.00;95243.53;5032026;28;20194;-61
2022/10/22 02:59:29;;;;;;;13.30;9.40;;;;;;;8.73;100.00;95217.72;5032277;28;20198;-62
2022/10/22 03:01:55;;;;;;;12.90;9.37;;;;;;;8.85;100.00;95234.63;5031973;28;20541;-61
2022/10/22 03:04:20;;;;;;;11.00;8.20;;;;;;;8.70;100.00;95232.34;5031792;28;20268;-62
2022/10/22 03:06:47;;;;;;;13.53;8.70;;;;;;;8.89;100.00;95242.81;5014076;28;20213;-61
2022/10/22 03:09:13;;;;;;;16.20;8.80;;;;;;;9.13;100.00;95258.91;5032111;28;20213;-59
2022/10/22 03:11:38;;;;;;;13.90;9.47;;;;;;;9.12;100.00;95258.09;5031709;28;20269;-59
2022/10/22 03:14:04;;;;;;;13.63;9.20;;;;;;;8.92;100.00;95223.16;5031551;28;20347;-61
2022/10/22 03:16:29;;;;;;;16.73;10.37;;;;;;;8.78;100.00;95227.56;5031664;28;20213;-61
2022/10/22 03:18:55;;;;;;;13.70;9.07;;;;;;;9.05;100.00;95239.13;5042978;22;20210;-61
2022/10/22 03:21:32;;;;;;;12.47;8.53;;;;;;;8.95;100.00;95245.75;5070443;28;20193;-61
2022/10/22 03:24:01;;;;;;;11.47;8.70;;;;;;;8.82;100.00;95224.72;5050400;28;20303;-59
2022/10/22 03:26:27;;;;;;;12.37;8.97;;;;;;;9.05;100.00;95238.34;5051293;28;20256;-61
2022/10/22 03:28:53;;;;;;;13.63;8.90;;;;;;;8.92;100.00;95230.78;5051616;28;20712;-58
2022/10/22 03:31:19;;;;;;;13.33;8.93;;;;;;;8.79;100.00;95216.47;5051578;28;20189;-59
2022/10/22 03:33:44;;;;;;;15.10;8.57;;;;;;;8.60;100.00;95214.41;5051799;28;20213;-59
2022/10/22 03:36:10;;;;;;;12.63;9.57;;;;;;;8.56;100.00;95218.06;5051560;28;20209;-59
2022/10/22 03:38:38;;;;;;;16.13;8.97;;;;;;;8.55;100.00;95223.22;5051576;28;20186;-62
2022/10/22 03:41:04;;;;;;;15.33;9.30;;;;;;;8.54;100.00;95216.56;5033301;28;20275;-58
2022/10/22 03:43:29;;;;;;;12.33;8.50;;;;;;;8.59;100.00;95220.38;5051763;28;20272;-59
2022/10/22 03:45:55;;;;;;;20.73;9.53;;;;;;;8.44;100.00;95199.41;5051248;28;20258;-60
2022/10/22 03:48:20;;;;;;;18.30;11.33;;;;;;;8.48;100.00;95214.44;5051279;28;20186;-59
2022/10/22 03:50:46;;;;;;;15.27;10.63;;;;;;;8.41;100.00;95207.25;5051229;28;20840;-61
2022/10/22 03:53:11;;;;;;;13.50;9.97;;;;;;;8.31;100.00;95200.38;5051350;28;20588;-61
2022/10/22 03:55:39;;;;;;;22.37;14.83;;;;;;;8.18;100.00;95202.88;5051200;28;20565;-62
2022/10/22 03:58:04;;;;;;;15.60;10.83;;;;;;;8.17;100.00;95211.38;5051089;28;20261;-60
2022/10/22 04:00:30;;;;;;;13.63;10.13;;;;;;;8.20;100.00;95223.84;5051049;28;20288;-59
2022/10/22 04:02:56;;;;;;;15.83;10.73;;;;;;;8.48;100.00;95218.56;5050966;28;20173;-61
2022/10/22 04:05:22;;;;;;;17.10;10.57;;;;;;;8.48;100.00;95223.63;5033124;28;20227;-61
2022/10/22 04:07:47;;;;;;;15.03;10.10;;;;;;;8.44;100.00;95217.16;5051034;28;20184;-60
2022/10/22 04:10:13;;;;;;;14.43;10.17;;;;;;;8.60;100.00;95223.75;5050904;28;20573;-58
2022/10/22 04:12:38;;;;;;;15.50;10.10;;;;;;;8.49;100.00;95216.84;5033102;28;20209;-61
2022/10/22 04:15:04;;;;;;;13.57;9.10;;;;;;;8.31;100.00;95205.44;5050706;28;20204;-62
2022/10/22 04:17:34;;;;;;;16.67;9.83;;;;;;;8.40;100.00;95199.75;5033021;28;20659;-61
2022/10/22 04:20:00;;;;;;;16.67;9.33;;;;;;;8.25;100.00;95214.25;5051178;28;20221;-62
2022/10/22 04:22:25;;;;;;;11.03;7.87;;;;;;;8.20;100.00;95220.50;5050747;28;20196;-61
2022/10/22 04:24:51;;;;;;;14.97;7.33;;;;;;;8.07;100.00;95205.31;5051113;28;20711;-58
2022/10/22 04:27:16;;;;;;;11.70;7.60;;;;;;;7.68;100.00;95194.44;5050743;28;20189;-59
2022/10/22 04:29:41;;;;;;;9.50;7.40;;;;;;;7.55;100.00;95207.09;5049446;28;20755;-61
2022/10/22 04:32:07;;;;;;;13.43;9.60;;;;;;;7.45;100.00;95203.53;5032845;28;20213;-62
2022/10/22 04:34:33;;;;;;;18.70;9.20;;;;;;;7.44;100.00;95199.34;5050744;28;20220;-59
2022/10/22 04:36:58;;;;;;;14.83;9.33;;;;;;;7.46;100.00;95205.94;5050662;28;20271;-62
2022/10/22 04:39:23;;;;;;;18.87;10.43;;;;;;;7.54;100.00;95211.31;5052784;28;20208;-62
2022/10/22 04:41:49;;;;;;;16.17;11.20;;;;;;;7.64;100.00;95214.06;5054131;28;20238;-61
2022/10/22 04:44:14;;;;;;;18.53;12.50;;;;;;;7.73;100.00;95218.56;5054384;28;20295;-60
2022/10/22 04:46:40;;;;;;;19.97;13.17;;;;;;;7.95;100.00;95213.72;5054069;28;20196;-60
2022/10/22 04:49:05;;;;;;;19.23;12.63;;;;;;;8.09;100.00;95211.09;5052499;28;20669;-60
2022/10/22 04:51:31;;;;;;;18.10;13.10;;;;;;;8.11;100.00;95211.78;5054186;28;20240;-61
2022/10/22 04:53:56;;;;;;;19.70;13.07;;;;;;;8.28;100.00;95205.66;5036001;28;20220;-59
2022/10/22 04:56:27;;;;;;;22.20;13.73;;;;;;;8.13;100.00;95206.63;5054172;28;20184;-59
2022/10/22 04:59:01;;;;;;;19.80;12.83;;;;;;;8.03;100.00;95216.56;5054148;28;20213;-60
2022/10/22 05:01:30;;;;;;;18.93;11.50;;;;;;;8.11;100.00;95223.63;5054063;28;20206;-61
2022/10/22 05:03:57;;;;;;;19.23;10.47;;;;;;;8.26;100.00;95232.81;5053972;28;20205;-61
2022/10/22 05:06:24;;;;;;;16.03;10.10;;;;;;;8.35;100.00;95233.00;5035732;28;20193;-62
2022/10/22 05:08:54;;;;;;;14.53;9.27;;;;;;;8.40;100.00;95222.56;5053878;28;20283;-61
2022/10/22 05:11:22;;;;;;;15.80;9.40;;;;;;;8.48;100.00;95234.69;5053720;28;20198;-62
2022/10/22 05:13:48;;;;;;;12.47;8.83;;;;;;;8.44;100.00;95239.16;5053578;28;20205;-61
2022/10/22 05:16:13;;;;;;;13.83;9.30;;;;;;;8.42;100.00;95248.59;5052324;28;20677;-61
2022/10/22 05:18:42;;;;;;;14.13;9.00;;;;;;;8.30;100.00;95264.59;5053589;28;20678;-60
2022/10/22 05:21:10;;;;;;;10.57;7.93;;;;;;;8.05;100.00;95247.66;5053442;28;20613;-59
2022/10/22 05:23:36;;;;;;;11.07;8.27;;;;;;;8.26;100.00;95248.78;5053509;28;20341;-59
2022/10/22 05:26:07;;;;;;;12.53;8.60;;;;;;;8.43;100.00;95265.41;5053402;28;20631;-59
2022/10/22 05:28:34;;;;;;;13.53;9.23;;;;;;;8.16;100.00;95241.88;5053417;28;20189;-60
2022/10/22 05:31:18;;;;;;;12.20;8.40;;;;;;;8.25;100.00;95249.72;5053388;28;20182;-61
2022/10/22 05:33:44;;;;;;;11.87;8.20;;;;;;;8.19;100.00;95249.25;5053241;28;20213;-61
2022/10/22 05:36:16;;;;;;;13.80;8.87;;;;;;;8.16;100.00;95240.13;5053204;28;20190;-61
2022/10/22 05:38:42;;;;;;;12.30;8.33;;;;;;;8.16;100.00;95247.75;5053226;28;20268;-60
2022/10/22 05:41:13;;;;;;;12.50;7.67;;;;;;;8.28;100.00;95253.78;5051825;28;20428;-61
2022/10/22 05:43:39;;;;;;;11.77;9.40;;;;;;;8.55;100.00;95269.66;5053300;28;20247;-58
2022/10/22 05:46:09;;;;;;;13.07;8.83;;;;;;;8.61;100.00;95276.84;5053167;28;20251;-59
2022/10/22 05:48:35;;;;;;;12.77;9.07;;;;;;;8.43;100.00;95273.81;5053168;28;20563;-60
2022/10/22 05:51:06;;;;;;;12.97;8.63;;;;;;;8.58;100.00;95269.47;5053182;28;20614;-60
2022/10/22 05:53:32;;;;;;;14.20;8.57;;;;;;;8.71;100.00;95280.38;5052859;28;20344;-61
2022/10/22 05:56:07;;;;;;;12.37;9.03;;;;;;;8.74;100.00;95274.31;5052848;28;20193;-59
2022/10/22 05:58:34;;;;;;;14.13;8.90;;;;;;;8.76;100.00;95268.22;5052747;28;20219;-60
2022/10/22 06:01:27;;;;;;;15.10;9.47;;;;;;;8.75;100.00;95276.72;5052857;28;20598;-59
2022/10/22 06:03:54;;;;;;;15.30;9.67;;;;;;;8.68;100.00;95244.31;5050463;28;20232;-60
2022/10/22 06:06:21;;;;;;;14.90;10.70;;;;;;;8.56;100.00;95235.00;5052614;28;20281;-60
2022/10/22 06:08:48;;;;;;;16.30;10.83;;;;;;;8.55;100.00;95249.38;5051286;28;20246;-59
2022/10/22 06:11:16;;;;;;;20.47;12.93;;;;;;;8.63;100.00;95261.53;5052728;28;20196;-61
2022/10/22 06:13:43;;;;;;;18.27;12.83;;;;;;;8.84;100.00;95263.44;5052774;28;20205;-62
2022/10/22 06:16:08;;;;;;;23.33;12.83;;;;;;;8.92;100.00;95263.72;5052489;28;20216;-61
2022/10/22 06:18:34;;;;;;;20.00;14.30;;;;;;;8.91;100.00;95258.75;5034827;28;20204;-60
2022/10/22 06:21:08;;;;;;;24.63;14.60;;;;;;;8.99;100.00;95269.97;5052303;28;20185;-61
2022/10/22 06:23:35;;;;;;;25.27;15.40;;;;;;;8.85;100.00;95256.63;5052559;28;20189;-60
2022/10/22 06:26:01;;;;;;;21.10;14.00;;;;;;;8.88;100.00;95261.50;5052372;28;20190;-61
2022/10/22 06:28:27;;;;;;;22.83;15.43;;;;;;;8.98;100.00;95265.84;5052344;28;20193;-61
2022/10/22 06:30:53;;;;;;;26.13;15.20;;;;;;;9.09;100.00;95270.97;5052460;28;20205;-61
2022/10/22 06:33:18;;;;;;;30.47;15.77;;;;;;;9.27;100.00;95274.78;5052400;28;20267;-61
2022/10/22 06:35:44;;;;;;;28.60;15.47;;;;;;;9.60;100.00;95288.53;5052251;28;20288;-61
2022/10/22 06:38:10;;;;;;;26.73;15.73;;;;;;;9.35;100.00;95286.13;5052147;28;20182;-62
2022/10/22 06:40:35;;;;;;;31.13;16.53;;;;;;;9.33;100.00;95288.78;5051908;28;20201;-61
2022/10/22 06:43:01;;;;;;;26.50;17.97;;;;;;;9.35;100.00;95286.94;5051881;28;20192;-60
2022/10/22 06:45:26;;;;;;;33.23;17.73;;;;;;;9.52;100.00;95293.34;5051639;28;20213;-58
2022/10/22 06:47:52;;;;;;;27.70;16.70;;;;;;;9.71;100.00;95301.31;5051844;28;20564;-60
2022/10/22 06:50:18;;;;;;;26.07;17.23;;;;;;;9.80;100.00;95304.00;5051896;28;20232;-61
2022/10/22 06:52:50;;;;;;;31.70;17.17;;;;;;;9.66;100.00;95306.69;5051684;28;20213;-60
2022/10/22 06:55:15;;;;;;;27.27;16.93;;;;;;;9.77;100.00;95309.31;5051868;28;20224;-60
2022/10/22 06:57:41;;;;;;;30.53;16.93;;;;;;;9.97;100.00;95310.41;5051992;28;20554;-59
2022/10/22 07:00:07;;;;;;;23.90;14.20;;;;;;;10.59;100.00;95260.09;5051593;28;20711;-60
2022/10/22 07:02:32;;;;;;;31.87;18.10;;;;;;;10.62;100.00;95318.34;5049903;28;20573;-60
2022/10/22 07:04:58;;;;;;;31.83;17.10;;;;;;;10.83;98.28;95354.88;5048622;23;20225;-63
2022/10/22 07:07:23;;;;;;;30.40;16.83;;;;;;;10.95;95.64;95369.22;5031931;28;20269;-60
2022/10/22 07:09:49;;;;;;;27.53;16.70;;;;;;;11.16;95.07;95364.28;5013779;28;20214;-60
2022/10/22 07:12:15;;;;;;;25.83;16.37;;;;;;;11.26;93.44;95373.66;5031618;28;20210;-62
2022/10/22 07:14:41;;;;;;;27.63;17.30;;;;;;;11.26;91.99;95388.91;5030303;28;20202;-60
2022/10/22 07:17:08;;;;;;;25.30;16.17;;;;;;;11.50;91.10;95394.69;5031557;28;20284;-61
2022/10/22 07:19:33;;;;;;;25.70;16.10;;;;;;;11.56;92.81;95357.75;5031006;28;20280;-59
2022/10/22 07:21:59;;;;;;;22.83;17.03;;;;;;;11.75;89.75;95402.09;5031635;28;20297;-62
2022/10/22 07:24:24;;;;;;;27.47;17.23;;;;;;;11.75;89.25;95406.38;5013861;28;20242;-61
2022/10/22 07:26:50;;;;;;;24.73;17.53;;;;;;;11.95;88.53;95415.03;5031450;28;20186;-60
2022/10/22 07:29:15;;;;;;;27.93;17.13;;;;;;;11.95;88.84;95405.66;5013650;28;20267;-63
2022/10/22 07:31:42;;;;;;;21.90;15.30;;;;;;;12.02;88.05;95408.53;5031418;28;20186;-60
2022/10/22 07:34:08;;;;;;;31.50;16.90;;;;;;;12.19;86.67;95425.84;5013722;28;20612;-60
2022/10/22 07:36:33;;;;;;;20.67;14.77;;;;;;;12.52;84.89;95446.16;5031567;28;20186;-62
2022/10/22 07:39:00;;;;;;;23.70;16.03;;;;;;;12.75;81.24;95487.66;5031481;28;20612;-61
2022/10/22 07:41:27;;;;;;;24.90;14.63;;;;;;;12.78;80.94;95480.59;5013496;28;20671;-61
2022/10/22 07:43:53;;;;;;;24.73;14.73;;;;;;;12.69;81.55;95471.09;5031331;28;20352;-60
2022/10/22 07:46:19;;;;;;;21.40;14.35;;;;;;;12.92;81.59;95464.97;5031132;28;20276;-59
2022/10/22 07:48:44;;;;;;;22.73;15.10;;;;;;;13.12;80.60;95464.19;5031213;28;20209;-61
2022/10/22 07:51:10;;;;;;;25.10;14.90;;;;;;;13.24;80.54;95460.63;5031596;28;20186;-59
2022/10/22 07:53:36;;;;;;;20.77;14.60;;;;;;;13.47;79.47;95456.19;5031060;28;20698;-60
2022/10/22 07:56:02;;;;;;;21.13;15.07;;;;;;;13.57;79.03;95476.66;5030917;28;20190;-60
2022/10/22 07:58:27;;;;;;;23.27;15.40;;;;;;;13.65;77.30;95497.28;5030990;28;20236;-60
2022/10/22 08:00:59;;;;;;;22.27;14.68;;;;;;;13.78;75.84;95508.06;5031128;28;20691;-59
2022/10/22 08:03:25;;;;;;;23.25;14.63;;;;;;;13.57;75.53;95517.53;5013369;28;20609;-62
2022/10/22 08:05:51;;;;;;;28.02;15.13;;;;;;;13.66;76.23;95494.59;5073937;22;20224;-61
2022/10/22 08:08:17;;;;;;;22.98;14.82;;;;;;;14.11;75.19;95518.84;5071000;28;20207;-61
2022/10/22 08:10:43;;;;;;;25.58;15.57;;;;;;;14.47;72.61;95566.09;5070707;28;20659;-62
2022/10/22 08:13:09;;;;;;;23.20;15.10;;;;;;;14.75;73.70;95538.94;5069407;28;20228;-61
2022/10/22 08:15:35;;;;;;;21.50;14.25;;;;;;;15.27;70.19;95586.41;5070925;28;20220;-62
2022/10/22 08:18:00;;;;;;;23.23;16.02;;;;;;;15.59;69.11;95590.34;5070961;28;20210;-61
2022/10/22 08:20:26;;;;;;;24.60;15.85;;;;;;;15.80;67.79;95615.78;5070873;28;20586;-61
2022/10/22 08:22:51;;;;;;;27.20;16.83;;;;;;;15.80;66.73;95626.84;5070558;28;20181;-61
2022/10/22 08:25:17;;;;;;;23.58;16.92;;;;;;;16.01;66.57;95616.41;5070553;28;20231;-59
2022/10/22 08:27:43;;;;;;;23.48;15.40;;;;;;;16.43;66.50;95602.22;5070489;28;20212;-59
2022/10/22 08:30:10;;;;;;;25.35;17.17;;;;;;;16.83;64.49;95631.94;5052548;28;20248;-60
2022/10/22 08:32:36;;;;;;;25.05;17.20;;;;;;;16.97;64.53;95621.16;5070583;28;20673;-59
2022/10/22 08:35:01;;;;;;;23.15;17.35;;;;;;;17.34;62.03;95662.97;5070462;28;20310;-60
2022/10/22 08:37:27;;;;;;;24.88;17.40;;;;;;;17.19;60.00;95692.72;5070334;28;20643;-60
2022/10/22 08:39:52;;;;;;;23.30;16.73;;;;;;;17.17;60.63;95661.22;5070953;28;20216;-59
2022/10/22 08:42:39;;;;;;;27.00;15.65;;;;;;;17.38;61.46;95648.88;5070510;28;20188;-59
2022/10/22 08:45:16;;;;;;;26.13;16.92;;;;;;;17.71;60.22;95673.97;5070786;28;20255;-61
2022/10/22 08:47:41;;;;;;;25.77;16.77;;;;;;;17.96;59.37;95685.22;5070530;28;20234;-61
2022/10/22 08:50:11;;;;;;;22.02;15.90;;;;;;;18.16;58.93;95687.47;5069984;28;20209;-62
2022/10/22 08:52:40;;;;;;;25.30;17.13;;;;;;;18.30;58.25;95699.00;5070247;28;20204;-64
2022/10/22 08:55:12;;;;;;;25.70;16.83;;;;;;;18.41;57.41;95707.28;5052256;28;20220;-60
2022/10/22 08:57:40;;;;;;;23.73;14.68;;;;;;;18.65;56.88;95716.94;5052287;28;20681;-59
2022/10/22 09:00:12;;;;;;;23.85;15.52;;;;;;;18.92;55.48;95741.72;5070092;28;20215;-60
2022/10/22 09:03:01;;;;;;;22.65;14.75;;;;;;;19.00;55.57;95734.03;5070478;28;20224;-61
2022/10/22 09:05:32;;;;;;;25.17;16.13;;;;;;;18.88;53.76;95774.75;5070064;28;20208;-60
2022/10/22 09:07:57;;;;;;;24.65;14.68;;;;;;;19.15;54.60;95735.88;5070001;28;20177;-60
2022/10/22 09:10:34;;;;;;;18.35;13.48;;;;;;;19.44;54.75;95720.03;5070355;28;20217;-60
2022/10/22 09:12:59;;;;;;;21.10;15.20;;;;;;;19.65;53.09;95774.59;5070164;28;20204;-60
2022/10/22 09:15:25;;;;;;;22.95;14.52;;;;;;;19.79;52.70;95766.25;5069825;28;20284;-60
2022/10/22 09:18:13;;;;;;;20.70;15.73;;;;;;;20.01;52.54;95763.03;5069903;28;20264;-59
2022/10/22 09:21:17;;;;;;;17.75;12.95;;;;;;;19.99;51.69;95783.06;5069333;28;20278;-62
2022/10/22 09:23:58;;;;;;;18.90;13.32;;;;;;;19.91;51.32;95772.72;5051267;28;20200;-62
2022/10/22 09:26:24;;;;;;;18.00;13.10;;;;;;;20.28;49.94;95817.97;5073622;28;20188;-60
2022/10/22 09:28:50;;;;;;;23.83;14.05;;;;;;;20.16;50.19;95789.00;5055379;28;20208;-59
2022/10/22 09:31:16;;;;;;;16.88;12.48;;;;;;;20.53;50.38;95783.41;5093469;22;20189;-61
2022/10/22 09:33:44;;;;;;;17.48;13.18;;;;;;;20.47;48.91;95823.63;5053235;28;20578;-58
2022/10/22 09:36:16;;;;;;;17.77;14.25;;;;;;;20.03;49.30;95771.44;5051983;28;20194;-62
2022/10/22 09:38:52;;;;;;;17.67;12.35;;;;;;;20.28;50.02;95761.94;5053335;28;20181;-59
2022/10/22 09:41:19;;;;;;;20.33;13.60;;;;;;;20.43;49.59;95777.59;5051843;28;20224;-61
2022/10/22 09:43:48;;;;;;;22.25;13.25;;;;;;;20.65;49.72;95746.72;5053127;28;20188;-62
2022/10/22 09:46:20;;;;;;;18.80;12.88;;;;;;;20.86;48.02;95814.25;5053051;28;20259;-63
2022/10/22 09:48:58;;;;;;;18.40;13.23;;;;;;;20.88;47.72;95801.13;5052906;28;20231;-62
2022/10/22 09:51:36;;;;;;;20.83;13.73;;;;;;;20.92;48.19;95777.38;5053045;28;20255;-62
2022/10/22 09:54:13;;;;;;;19.83;14.88;;;;;;;20.84;49.22;95732.63;5051554;28;20312;-63
2022/10/22 09:56:42;;;;;;;18.52;13.43;;;;;;;20.79;48.94;95733.13;5052983;28;20276;-62
2022/10/22 09:59:16;;;;;;;21.02;14.63;;;;;;;21.10;47.85;95777.19;5051578;28;20213;-61
2022/10/22 10:01:43;;;;;;;24.70;14.13;;;;;;;21.05;48.67;95743.25;5053069;28;20191;-59
2022/10/22 10:04:15;;;;;;;22.65;14.88;;;;;;;21.06;48.09;95769.91;5052678;28;20359;-61
2022/10/22 10:06:43;;;;;;;25.00;15.02;;;;;;;21.33;47.93;95772.88;5051494;28;20200;-61
2022/10/22 10:09:20;;;;;;;18.52;13.10;;;;;;;21.50;47.44;95769.25;5052633;28;20205;-59
2022/10/22 10:11:55;;;;;;;19.95;13.35;;;;;;;21.68;47.09;95769.81;5052754;28;20189;-60
2022/10/22 10:14:57;;;;;;;20.35;13.65;;;;;;;22.00;46.20;95792.16;5052575;28;20212;-59
2022/10/22 10:17:44;;;;;;;22.63;14.13;;;;;;;21.79;46.39;95796.28;5028812;28;20212;-59
2022/10/22 10:20:17;;;;;;;21.88;13.80;;;;;;;21.67;47.45;95751.88;5052406;28;20219;-61
2022/10/22 10:22:50;;;;;;;22.25;13.65;;;;;;;21.75;48.11;95729.31;5052302;28;20193;-63
2022/10/22 10:25:19;;;;;;;23.77;12.70;;;;;;;21.69;46.64;95771.41;5052386;28;20204;-62
2022/10/22 10:28:19;;;;;;;18.05;12.75;;;;;;;21.84;46.04;95775.91;5052790;28;20698;-59
2022/10/22 10:31:02;;;;;;;17.85;13.38;;;;;;;22.02;45.83;95785.00;5041031;22;20734;-61
2022/10/22 10:33:49;;;;;;;20.15;13.65;;;;;;;22.32;45.55;95794.50;5050491;28;20224;-62
2022/10/22 10:36:49;;;;;;;17.38;12.13;;;;;;;22.64;44.53;95806.44;5040348;23;20229;-61
2022/10/22 10:39:28;;;;;;;18.63;12.23;;;;;;;22.96;44.68;95800.94;5030594;28;20259;-61
2022/10/22 10:41:57;;;;;;;27.63;13.73;;;;;;;23.03;43.33;95814.81;5032189;28;20248;-61
2022/10/22 10:44:35;;;;;;;15.60;11.90;;;;;;;22.56;43.07;95752.03;5031981;28;20216;-61
2022/10/22 10:47:14;;;;;;;17.52;12.60;;;;;;;21.88;45.41;95655.44;5032305;28;20182;-63
2022/10/22 10:49:42;;;;;;;15.98;12.30;;;;;;;22.14;44.09;95689.56;5032420;28;20244;-60
2022/10/22 10:52:32;;;;;;;19.55;12.55;;;;;;;22.04;43.85;95689.03;5032033;28;20187;-61
2022/10/22 10:55:16;;;;;;;19.40;11.85;;;;;;;21.93;44.29;95666.09;5031887;28;20301;-62
2022/10/22 10:58:20;;;;;;;18.52;13.15;;;;;;;22.16;44.79;95636.59;5032017;28;20185;-59
2022/10/22 11:00:57;;;;;;;17.10;12.25;;;;;;;22.18;44.85;95623.47;4990118;28;20218;-59
2022/10/22 11:03:31;;;;;;;14.68;11.43;;;;;;;22.06;45.02;95606.75;5026333;28;20193;-60
2022/10/22 11:06:06;;;;;;;17.75;11.40;;;;;;;22.08;44.18;95638.47;5032139;28;20195;-60
2022/10/22 11:08:40;;;;;;;16.70;11.43;;;;;;;22.17;45.01;95606.31;5031702;28;20192;-62
2022/10/22 11:11:25;;;;;;;13.70;11.00;;;;;;;22.07;45.18;95588.44;5032195;28;20185;-60
2022/10/22 11:13:50;;;;;;;19.55;11.20;;;;;;;22.00;45.36;95568.63;5031730;28;20664;-59
2022/10/22 11:16:30;;;;;;;14.80;11.30;;;;;;;21.70;46.39;95531.47;5031525;28;20186;-61
2022/10/22 11:19:15;;;;;;;16.85;11.45;;;;;;;22.35;45.42;95563.53;5031473;28;20202;-59
2022/10/22 11:22:10;;;;;;;15.68;10.10;;;;;;;22.20;46.03;95546.38;5013523;28;20209;-59
2022/10/22 11:25:21;;;;;;;15.40;10.40;;;;;;;22.32;45.51;95542.34;5031154;28;20676;-59
2022/10/22 11:27:56;;;;;;;15.93;9.75;;;;;;;22.54;44.54;95567.38;5028193;28;20278;-61
2022/10/22 11:30:24;;;;;;;11.80;9.73;;;;;;;22.77;44.06;95595.78;5031587;28;20209;-61
2022/10/22 11:32:56;;;;;;;13.15;9.95;;;;;;;22.76;43.94;95589.81;5031222;28;20210;-59
2022/10/22 11:35:33;;;;;;;13.43;9.85;;;;;;;22.91;44.08;95585.38;5031580;28;20210;-59